sensor_id;sensor_type;location;lat;lon;timestamp;temperature;humidity
3226;DHT22;1625;49.884;8.666;2022-08-01T00:00:41;24.90;99.80
3226;DHT22;1625;49.884;8.666;2022-08-01T00:03:06;24.90;99.90
3226;DHT22;1625;49.884;8.666;2022-08-01T00:05:32;24.90;99.90
3226;DHT22;1625;49.884;8.666;2022-08-01T00:07:58;24.80;99.90
3226;DHT22;1625;49.884;8.666;2022-08-01T00:10:23;24.70;99.90
3226;DHT22;1625;49.884;8.666;2022-08-01T00:12:49;24.70;99.90
3226;DHT22;1625;49.884;8.666;2022-08-01T00:15:16;24.60;99.90
3226;DHT22;1625;49.884;8.666;2022-08-01T00:17:43;24.60;99.90
3226;DHT22;1625;49.884;8.666;2022-08-01T00:20:12;24.60;99.90
3226;DHT22;1625;49.884;8.666;2022-08-01T00:22:38;24.60;99.90
3226;DHT22;1625;49.884;8.666;2022-08-01T00:25:05;24.60;99.90
3226;DHT22;1625;49.884;8.666;2022-08-01T00:27:31;24.60;99.90
3226;DHT22;1625;49.884;8.666;2022-08-01T00:29:57;24.60;99.90
3226;DHT22;1625;49.884;8.666;2022-08-01T00:32:23;24.60;99.90
3226;DHT22;1625;49.884;8.666;2022-08-01T00:34:48;24.60;99.90
3226;DHT22;1625;49.884;8.666;2022-08-01T00:37:14;24.60;99.90
3226;DHT22;1625;49.884;8.666;2022-08-01T00:39:39;24.50;99.90
3226;DHT22;1625;49.884;8.666;2022-08-01T00:42:10;24.50;99.90
3226;DHT22;1625;49.884;8.666;2022-08-01T00:44:36;24.60;99.90
3226;DHT22;1625;49.884;8.666;2022-08-01T00:47:03;24.60;99.90
3226;DHT22;1625;49.884;8.666;2022-08-01T00:49:28;24.50;99.90
3226;DHT22;1625;49.884;8.666;2022-08-01T00:51:55;24.50;99.90
3226;DHT22;1625;49.884;8.666;2022-08-01T04:03:23;22.60;99.90
3226;DHT22;1625;49.884;8.666;2022-08-01T04:05:49;22.60;99.90
3226;DHT22;1625;49.884;8.666;2022-08-01T04:08:15;22.60;99.90
3226;DHT22;1625;49.884;8.666;2022-08-01T04:10:41;22.60;99.90
3226;DHT22;1625;49.884;8.666;2022-08-01T04:13:07;22.60;99.90
3226;DHT22;1625;49.884;8.666;2022-08-01T06:40:50;22.90;99.90
3226;DHT22;1625;49.884;8.666;2022-08-01T06:43:53;23.00;99.90
3226;DHT22;1625;49.884;8.666;2022-08-01T06:46:30;22.90;99.90
3226;DHT22;1625;49.884;8.666;2022-08-01T06:49:00;23.10;99.90
3226;DHT22;1625;49.884;8.666;2022-08-01T06:51:25;23.20;99.90
3226;DHT22;1625;49.884;8.666;2022-08-01T06:58:45;23.20;99.90
3226;DHT22;1625;49.884;8.666;2022-08-01T07:01:10;23.20;99.90
3226;DHT22;1625;49.884;8.666;2022-08-01T07:03:37;23.10;99.90
3226;DHT22;1625;49.884;8.666;2022-08-01T07:06:03;23.30;99.90
3226;DHT22;1625;49.884;8.666;2022-08-01T07:08:29;23.40;99.90
3226;DHT22;1625;49.884;8.666;2022-08-01T07:10:54;23.40;99.90
3226;DHT22;1625;49.884;8.666;2022-08-01T07:13:21;23.40;99.90
3226;DHT22;1625;49.884;8.666;2022-08-01T07:15:50;23.40;99.90
3226;DHT22;1625;49.884;8.666;2022-08-01T07:18:16;23.40;99.90
3226;DHT22;1625;49.884;8.666;2022-08-01T07:20:41;23.40;99.90
3226;DHT22;1625;49.884;8.666;2022-08-01T07:23:07;23.60;99.90
3226;DHT22;1625;49.884;8.666;2022-08-01T07:25:32;23.60;99.90
3226;DHT22;1625;49.884;8.666;2022-08-01T07:27:58;23.60;99.90
3226;DHT22;1625;49.884;8.666;2022-08-01T07:32:49;23.40;99.90
3226;DHT22;1625;49.884;8.666;2022-08-01T07:35:15;23.30;99.90
3226;DHT22;1625;49.884;8.666;2022-08-01T07:37:40;23.20;99.90
3226;DHT22;1625;49.884;8.666;2022-08-01T07:40:06;23.20;99.90
3226;DHT22;1625;49.884;8.666;2022-08-01T07:42:32;23.30;99.90
3226;DHT22;1625;49.884;8.666;2022-08-01T07:44:57;23.40;99.90
3226;DHT22;1625;49.884;8.666;2022-08-01T07:47:26;23.70;99.90
3226;DHT22;1625;49.884;8.666;2022-08-01T07:49:59;23.80;99.90
3226;DHT22;1625;49.884;8.666;2022-08-01T07:52:25;24.00;99.90
3226;DHT22;1625;49.884;8.666;2022-08-01T07:54:53;24.10;99.90
3226;DHT22;1625;49.884;8.666;2022-08-01T07:57:19;24.20;99.90
3226;DHT22;1625;49.884;8.666;2022-08-01T07:59:44;24.40;99.90
3226;DHT22;1625;49.884;8.666;2022-08-01T08:02:10;24.40;99.90
3226;DHT22;1625;49.884;8.666;2022-08-01T08:04:35;24.40;99.90
3226;DHT22;1625;49.884;8.666;2022-08-01T08:07:01;24.50;99.90
3226;DHT22;1625;49.884;8.666;2022-08-01T08:09:27;24.50;99.90
3226;DHT22;1625;49.884;8.666;2022-08-01T08:11:53;24.50;99.90
3226;DHT22;1625;49.884;8.666;2022-08-01T08:14:18;24.50;99.90
3226;DHT22;1625;49.884;8.666;2022-08-01T08:16:44;24.50;99.90
3226;DHT22;1625;49.884;8.666;2022-08-01T08:19:11;24.50;99.90
3226;DHT22;1625;49.884;8.666;2022-08-01T08:21:36;24.40;99.90
3226;DHT22;1625;49.884;8.666;2022-08-01T08:24:03;24.40;99.90
3226;DHT22;1625;49.884;8.666;2022-08-01T08:26:49;24.50;99.90
3226;DHT22;1625;49.884;8.666;2022-08-01T08:29:17;24.50;99.90
3226;DHT22;1625;49.884;8.666;2022-08-01T08:31:42;24.50;99.90
3226;DHT22;1625;49.884;8.666;2022-08-01T08:34:08;24.60;99.90
3226;DHT22;1625;49.884;8.666;2022-08-01T08:36:34;24.70;99.90
3226;DHT22;1625;49.884;8.666;2022-08-01T08:39:00;24.60;99.90
3226;DHT22;1625;49.884;8.666;2022-08-01T08:41:28;24.60;99.90
3226;DHT22;1625;49.884;8.666;2022-08-01T08:43:54;24.60;99.90
3226;DHT22;1625;49.884;8.666;2022-08-01T08:46:22;24.80;99.90
3226;DHT22;1625;49.884;8.666;2022-08-01T08:48:48;24.90;99.90
3226;DHT22;1625;49.884;8.666;2022-08-01T08:51:16;25.00;99.90
3226;DHT22;1625;49.884;8.666;2022-08-01T08:53:44;25.00;99.90
3226;DHT22;1625;49.884;8.666;2022-08-01T08:56:12;24.80;99.90
3226;DHT22;1625;49.884;8.666;2022-08-01T08:58:40;24.70;99.90
3226;DHT22;1625;49.884;8.666;2022-08-01T09:01:06;24.70;99.90
3226;DHT22;1625;49.884;8.666;2022-08-01T09:03:34;24.70;99.90
3226;DHT22;1625;49.884;8.666;2022-08-01T09:06:00;24.60;99.90
3226;DHT22;1625;49.884;8.666;2022-08-01T09:08:26;24.70;99.90
3226;DHT22;1625;49.884;8.666;2022-08-01T09:10:51;24.70;99.90
3226;DHT22;1625;49.884;8.666;2022-08-01T09:13:17;24.90;99.90
3226;DHT22;1625;49.884;8.666;2022-08-01T09:15:45;24.90;99.90
3226;DHT22;1625;49.884;8.666;2022-08-01T09:18:35;25.00;99.90
3226;DHT22;1625;49.884;8.666;2022-08-01T09:23:42;25.20;99.90
3226;DHT22;1625;49.884;8.666;2022-08-01T09:26:10;25.30;99.90
3226;DHT22;1625;49.884;8.666;2022-08-01T09:28:36;25.40;99.90
3226;DHT22;1625;49.884;8.666;2022-08-01T09:31:06;25.40;99.90
3226;DHT22;1625;49.884;8.666;2022-08-01T09:36:17;25.60;99.90
3226;DHT22;1625;49.884;8.666;2022-08-01T09:38:42;25.60;99.90
3226;DHT22;1625;49.884;8.666;2022-08-01T09:41:08;25.60;99.90
3226;DHT22;1625;49.884;8.666;2022-08-01T09:43:34;25.60;99.90
3226;DHT22;1625;49.884;8.666;2022-08-01T09:46:04;25.70;99.90
3226;DHT22;1625;49.884;8.666;2022-08-01T09:48:31;25.80;99.90
3226;DHT22;1625;49.884;8.666;2022-08-01T09:50:59;25.80;99.90
3226;DHT22;1625;49.884;8.666;2022-08-01T09:53:25;25.90;99.90
3226;DHT22;1625;49.884;8.666;2022-08-01T09:55:50;25.90;99.90
3226;DHT22;1625;49.884;8.666;2022-08-01T09:58:18;25.90;99.90
3226;DHT22;1625;49.884;8.666;2022-08-01T10:00:58;25.90;99.90
3226;DHT22;1625;49.884;8.666;2022-08-01T10:03:26;25.70;99.90
3226;DHT22;1625;49.884;8.666;2022-08-01T10:05:52;25.70;99.90
3226;DHT22;1625;49.884;8.666;2022-08-01T10:08:22;25.60;99.90
3226;DHT22;1625;49.884;8.666;2022-08-01T10:11:11;25.70;99.90
3226;DHT22;1625;49.884;8.666;2022-08-01T10:13:36;25.90;99.90
3226;DHT22;1625;49.884;8.666;2022-08-01T10:16:03;25.90;99.90
3226;DHT22;1625;49.884;8.666;2022-08-01T10:18:34;25.90;99.90
3226;DHT22;1625;49.884;8.666;2022-08-01T10:21:01;26.00;99.90
3226;DHT22;1625;49.884;8.666;2022-08-01T10:23:33;26.00;99.90
3226;DHT22;1625;49.884;8.666;2022-08-01T10:26:00;26.10;99.90
3226;DHT22;1625;49.884;8.666;2022-08-01T10:28:26;26.30;99.90
3226;DHT22;1625;49.884;8.666;2022-08-01T10:30:55;26.40;99.90
3226;DHT22;1625;49.884;8.666;2022-08-01T10:33:22;26.50;99.90
3226;DHT22;1625;49.884;8.666;2022-08-01T10:35:50;26.40;99.90
3226;DHT22;1625;49.884;8.666;2022-08-01T10:38:16;26.40;99.90
3226;DHT22;1625;49.884;8.666;2022-08-01T10:40:42;26.20;99.90
3226;DHT22;1625;49.884;8.666;2022-08-01T10:43:12;26.30;99.90
3226;DHT22;1625;49.884;8.666;2022-08-01T10:45:38;26.40;99.90
3226;DHT22;1625;49.884;8.666;2022-08-01T10:48:06;26.40;99.90
3226;DHT22;1625;49.884;8.666;2022-08-01T10:50:37;26.50;99.90
3226;DHT22;1625;49.884;8.666;2022-08-01T10:53:13;26.40;99.90
3226;DHT22;1625;49.884;8.666;2022-08-01T10:55:50;26.40;99.90
3226;DHT22;1625;49.884;8.666;2022-08-01T10:58:27;26.40;99.90
3226;DHT22;1625;49.884;8.666;2022-08-01T11:04:03;26.30;99.90
3226;DHT22;1625;49.884;8.666;2022-08-01T11:09:00;26.40;99.90
3226;DHT22;1625;49.884;8.666;2022-08-01T11:11:26;26.40;99.90
3226;DHT22;1625;49.884;8.666;2022-08-01T11:16:50;26.40;99.90
3226;DHT22;1625;49.884;8.666;2022-08-01T11:19:15;26.40;99.90
3226;DHT22;1625;49.884;8.666;2022-08-01T11:27:37;26.60;99.90
3226;DHT22;1625;49.884;8.666;2022-08-01T11:30:23;26.70;99.90
3226;DHT22;1625;49.884;8.666;2022-08-01T11:35:16;26.80;99.90
3226;DHT22;1625;49.884;8.666;2022-08-01T11:37:42;26.80;99.90
3226;DHT22;1625;49.884;8.666;2022-08-01T11:40:25;26.90;99.90
3226;DHT22;1625;49.884;8.666;2022-08-01T11:45:51;27.00;99.90
3226;DHT22;1625;49.884;8.666;2022-08-01T11:48:25;27.00;99.90
3226;DHT22;1625;49.884;8.666;2022-08-01T11:50:52;27.00;99.90
3226;DHT22;1625;49.884;8.666;2022-08-01T11:53:18;27.00;99.90
3226;DHT22;1625;49.884;8.666;2022-08-01T11:55:52;27.00;99.90
3226;DHT22;1625;49.884;8.666;2022-08-01T11:58:23;26.80;99.90
3226;DHT22;1625;49.884;8.666;2022-08-01T12:00:56;26.80;99.90
3226;DHT22;1625;49.884;8.666;2022-08-01T12:03:28;26.70;99.90
3226;DHT22;1625;49.884;8.666;2022-08-01T12:05:54;26.90;99.90
3226;DHT22;1625;49.884;8.666;2022-08-01T12:08:30;27.30;99.90
3226;DHT22;1625;49.884;8.666;2022-08-01T12:11:03;27.50;99.90
3226;DHT22;1625;49.884;8.666;2022-08-01T12:13:42;27.60;99.90
3226;DHT22;1625;49.884;8.666;2022-08-01T12:16:09;27.90;99.90
3226;DHT22;1625;49.884;8.666;2022-08-01T12:18:40;28.10;99.90
3226;DHT22;1625;49.884;8.666;2022-08-01T12:21:06;28.20;99.90
3226;DHT22;1625;49.884;8.666;2022-08-01T12:23:31;28.30;99.90
3226;DHT22;1625;49.884;8.666;2022-08-01T12:25:57;28.30;99.90
3226;DHT22;1625;49.884;8.666;2022-08-01T12:28:22;28.40;99.90
3226;DHT22;1625;49.884;8.666;2022-08-01T12:30:48;28.40;99.90
3226;DHT22;1625;49.884;8.666;2022-08-01T12:33:17;28.50;99.90
3226;DHT22;1625;49.884;8.666;2022-08-01T12:35:44;28.70;99.90
3226;DHT22;1625;49.884;8.666;2022-08-01T12:38:21;28.90;99.90
3226;DHT22;1625;49.884;8.666;2022-08-01T12:40:52;29.00;99.90
3226;DHT22;1625;49.884;8.666;2022-08-01T12:43:19;29.00;99.90
3226;DHT22;1625;49.884;8.666;2022-08-01T12:45:47;29.00;99.90
3226;DHT22;1625;49.884;8.666;2022-08-01T12:48:16;29.00;99.90
3226;DHT22;1625;49.884;8.666;2022-08-01T12:50:45;29.00;99.90
3226;DHT22;1625;49.884;8.666;2022-08-01T12:53:11;29.00;99.90
3226;DHT22;1625;49.884;8.666;2022-08-01T12:55:48;29.00;99.90
3226;DHT22;1625;49.884;8.666;2022-08-01T12:58:17;29.00;99.90
3226;DHT22;1625;49.884;8.666;2022-08-01T13:00:45;29.20;99.90
3226;DHT22;1625;49.884;8.666;2022-08-01T13:03:14;29.40;99.90
3226;DHT22;1625;49.884;8.666;2022-08-01T13:05:54;29.50;99.90
3226;DHT22;1625;49.884;8.666;2022-08-01T13:08:22;29.60;99.90
3226;DHT22;1625;49.884;8.666;2022-08-01T13:10:48;29.60;99.90
3226;DHT22;1625;49.884;8.666;2022-08-01T13:13:16;29.40;99.90
3226;DHT22;1625;49.884;8.666;2022-08-01T13:15:43;29.40;99.90
3226;DHT22;1625;49.884;8.666;2022-08-01T13:18:29;29.50;99.90
3226;DHT22;1625;49.884;8.666;2022-08-01T13:21:16;29.40;99.90
3226;DHT22;1625;49.884;8.666;2022-08-01T13:26:52;29.40;99.90
3226;DHT22;1625;49.884;8.666;2022-08-01T13:29:28;29.50;99.90
3226;DHT22;1625;49.884;8.666;2022-08-01T13:31:54;29.50;99.90
3226;DHT22;1625;49.884;8.666;2022-08-01T13:34:33;29.80;99.90
3226;DHT22;1625;49.884;8.666;2022-08-01T13:36:59;30.10;99.80
3226;DHT22;1625;49.884;8.666;2022-08-01T13:39:27;30.20;99.60
3226;DHT22;1625;49.884;8.666;2022-08-01T13:42:06;30.30;99.70
3226;DHT22;1625;49.884;8.666;2022-08-01T13:44:31;30.40;99.40
3226;DHT22;1625;49.884;8.666;2022-08-01T13:46:57;30.50;98.90
3226;DHT22;1625;49.884;8.666;2022-08-01T13:49:22;30.40;98.10
3226;DHT22;1625;49.884;8.666;2022-08-01T13:51:48;30.30;98.70
3226;DHT22;1625;49.884;8.666;2022-08-01T13:54:15;30.20;97.80
3226;DHT22;1625;49.884;8.666;2022-08-01T13:56:41;30.30;98.20
3226;DHT22;1625;49.884;8.666;2022-08-01T13:59:07;30.30;97.80
3226;DHT22;1625;49.884;8.666;2022-08-01T14:01:33;30.40;98.20
3226;DHT22;1625;49.884;8.666;2022-08-01T14:03:59;30.20;97.40
3226;DHT22;1625;49.884;8.666;2022-08-01T14:06:25;30.30;97.60
3226;DHT22;1625;49.884;8.666;2022-08-01T14:08:50;30.20;97.20
3226;DHT22;1625;49.884;8.666;2022-08-01T14:11:16;30.20;97.20
3226;DHT22;1625;49.884;8.666;2022-08-01T14:13:42;30.20;96.90
3226;DHT22;1625;49.884;8.666;2022-08-01T14:16:08;30.10;97.00
3226;DHT22;1625;49.884;8.666;2022-08-01T14:18:34;30.10;97.00
3226;DHT22;1625;49.884;8.666;2022-08-01T14:21:00;30.20;96.40
3226;DHT22;1625;49.884;8.666;2022-08-01T14:23:26;31.40;96.50
3226;DHT22;1625;49.884;8.666;2022-08-01T14:25:52;33.80;95.00
3226;DHT22;1625;49.884;8.666;2022-08-01T14:28:17;35.10;92.90
3226;DHT22;1625;49.884;8.666;2022-08-01T14:30:43;34.00;91.60
3226;DHT22;1625;49.884;8.666;2022-08-01T14:33:10;32.50;92.60
3226;DHT22;1625;49.884;8.666;2022-08-01T14:35:36;31.70;93.20
3226;DHT22;1625;49.884;8.666;2022-08-01T14:38:02;31.50;93.70
3226;DHT22;1625;49.884;8.666;2022-08-01T14:40:27;31.20;94.00
3226;DHT22;1625;49.884;8.666;2022-08-01T14:42:53;30.70;94.00
3226;DHT22;1625;49.884;8.666;2022-08-01T14:45:18;30.20;94.50
3226;DHT22;1625;49.884;8.666;2022-08-01T14:47:44;29.80;94.80
3226;DHT22;1625;49.884;8.666;2022-08-01T14:50:13;29.40;94.90
3226;DHT22;1625;49.884;8.666;2022-08-01T14:52:39;29.20;95.40
3226;DHT22;1625;49.884;8.666;2022-08-01T14:55:07;29.00;95.70
3226;DHT22;1625;49.884;8.666;2022-08-01T14:57:33;28.90;95.80
3226;DHT22;1625;49.884;8.666;2022-08-01T14:59:58;28.90;96.30
3226;DHT22;1625;49.884;8.666;2022-08-01T15:02:24;28.90;96.20
3226;DHT22;1625;49.884;8.666;2022-08-01T15:04:50;28.80;96.00
3226;DHT22;1625;49.884;8.666;2022-08-01T15:07:16;28.70;96.30
3226;DHT22;1625;49.884;8.666;2022-08-01T15:09:42;28.50;96.20
3226;DHT22;1625;49.884;8.666;2022-08-01T15:12:09;28.40;96.50
3226;DHT22;1625;49.884;8.666;2022-08-01T15:14:34;28.30;96.40
3226;DHT22;1625;49.884;8.666;2022-08-01T15:17:27;28.10;96.70
3226;DHT22;1625;49.884;8.666;2022-08-01T15:19:58;28.00;97.10
3226;DHT22;1625;49.884;8.666;2022-08-01T15:22:26;27.80;97.40
3226;DHT22;1625;49.884;8.666;2022-08-01T15:24:52;27.70;97.70
3226;DHT22;1625;49.884;8.666;2022-08-01T15:27:18;27.70;97.70
3226;DHT22;1625;49.884;8.666;2022-08-01T15:29:44;27.60;97.80
3226;DHT22;1625;49.884;8.666;2022-08-01T15:32:11;27.50;98.10
3226;DHT22;1625;49.884;8.666;2022-08-01T15:34:37;27.20;99.90
3226;DHT22;1625;49.884;8.666;2022-08-01T15:37:04;26.30;99.90
3226;DHT22;1625;49.884;8.666;2022-08-01T15:39:30;25.60;99.90
3226;DHT22;1625;49.884;8.666;2022-08-01T15:42:02;24.70;99.90
3226;DHT22;1625;49.884;8.666;2022-08-01T15:44:29;23.80;99.90
3226;DHT22;1625;49.884;8.666;2022-08-01T15:46:54;22.90;99.90
3226;DHT22;1625;49.884;8.666;2022-08-01T15:49:20;22.90;99.90
3226;DHT22;1625;49.884;8.666;2022-08-01T15:51:48;22.90;99.90
3226;DHT22;1625;49.884;8.666;2022-08-01T15:54:14;23.00;99.90
3226;DHT22;1625;49.884;8.666;2022-08-01T15:56:40;23.20;99.90
3226;DHT22;1625;49.884;8.666;2022-08-01T15:59:06;23.30;99.90
3226;DHT22;1625;49.884;8.666;2022-08-01T16:01:31;23.50;99.90
3226;DHT22;1625;49.884;8.666;2022-08-01T16:03:58;23.60;99.90
3226;DHT22;1625;49.884;8.666;2022-08-01T16:06:24;23.70;99.90
3226;DHT22;1625;49.884;8.666;2022-08-01T16:08:49;23.80;99.90
3226;DHT22;1625;49.884;8.666;2022-08-01T16:11:16;23.80;99.90
3226;DHT22;1625;49.884;8.666;2022-08-01T16:13:43;23.90;99.90
3226;DHT22;1625;49.884;8.666;2022-08-01T16:16:10;24.00;99.90
3226;DHT22;1625;49.884;8.666;2022-08-01T16:18:36;24.00;99.90
3226;DHT22;1625;49.884;8.666;2022-08-01T16:21:02;23.90;99.90
3226;DHT22;1625;49.884;8.666;2022-08-01T16:23:28;23.90;99.90
3226;DHT22;1625;49.884;8.666;2022-08-01T16:25:54;23.90;99.90
3226;DHT22;1625;49.884;8.666;2022-08-01T16:28:20;23.80;99.90
3226;DHT22;1625;49.884;8.666;2022-08-01T16:30:46;23.70;99.90
3226;DHT22;1625;49.884;8.666;2022-08-01T16:33:12;23.70;99.90
3226;DHT22;1625;49.884;8.666;2022-08-01T16:35:38;23.70;99.90
3226;DHT22;1625;49.884;8.666;2022-08-01T16:38:05;23.70;99.90
3226;DHT22;1625;49.884;8.666;2022-08-01T16:40:31;23.70;99.90
3226;DHT22;1625;49.884;8.666;2022-08-01T16:42:57;23.80;99.90
3226;DHT22;1625;49.884;8.666;2022-08-01T16:45:22;24.00;99.90
3226;DHT22;1625;49.884;8.666;2022-08-01T16:47:48;24.10;99.90
3226;DHT22;1625;49.884;8.666;2022-08-01T16:50:14;24.30;99.90
3226;DHT22;1625;49.884;8.666;2022-08-01T16:52:40;24.50;99.90
3226;DHT22;1625;49.884;8.666;2022-08-01T16:55:06;24.60;99.90
3226;DHT22;1625;49.884;8.666;2022-08-01T16:57:32;24.90;99.90
3226;DHT22;1625;49.884;8.666;2022-08-01T17:00:06;24.90;99.90
3226;DHT22;1625;49.884;8.666;2022-08-01T17:02:33;24.80;99.90
3226;DHT22;1625;49.884;8.666;2022-08-01T17:04:58;24.80;99.90
3226;DHT22;1625;49.884;8.666;2022-08-01T17:07:24;24.70;99.90
3226;DHT22;1625;49.884;8.666;2022-08-01T17:09:50;24.60;99.90
3226;DHT22;1625;49.884;8.666;2022-08-01T17:12:15;24.50;99.90
3226;DHT22;1625;49.884;8.666;2022-08-01T17:14:40;24.40;99.90
3226;DHT22;1625;49.884;8.666;2022-08-01T17:17:06;24.20;99.90
3226;DHT22;1625;49.884;8.666;2022-08-01T17:19:32;24.10;99.90
3226;DHT22;1625;49.884;8.666;2022-08-01T17:21:58;24.00;99.90
3226;DHT22;1625;49.884;8.666;2022-08-01T17:24:23;24.00;99.90
3226;DHT22;1625;49.884;8.666;2022-08-01T17:26:49;23.90;99.90
3226;DHT22;1625;49.884;8.666;2022-08-01T17:29:14;23.90;99.90
3226;DHT22;1625;49.884;8.666;2022-08-01T17:31:41;24.00;99.90
3226;DHT22;1625;49.884;8.666;2022-08-01T17:34:07;24.00;99.90
3226;DHT22;1625;49.884;8.666;2022-08-01T17:36:32;24.00;99.90
3226;DHT22;1625;49.884;8.666;2022-08-01T17:38:58;24.10;99.90
3226;DHT22;1625;49.884;8.666;2022-08-01T17:41:24;24.10;99.90
3226;DHT22;1625;49.884;8.666;2022-08-01T17:43:49;24.00;99.90
3226;DHT22;1625;49.884;8.666;2022-08-01T17:46:15;24.00;99.90
3226;DHT22;1625;49.884;8.666;2022-08-01T17:48:41;24.00;99.90
3226;DHT22;1625;49.884;8.666;2022-08-01T17:51:08;24.20;99.90
3226;DHT22;1625;49.884;8.666;2022-08-01T17:53:34;24.60;99.90
3226;DHT22;1625;49.884;8.666;2022-08-01T17:55:59;24.90;99.90
3226;DHT22;1625;49.884;8.666;2022-08-01T17:58:27;25.80;99.90
3226;DHT22;1625;49.884;8.666;2022-08-01T18:00:52;26.20;99.90
3226;DHT22;1625;49.884;8.666;2022-08-01T18:03:18;26.40;99.90
3226;DHT22;1625;49.884;8.666;2022-08-01T18:05:44;26.40;99.90
3226;DHT22;1625;49.884;8.666;2022-08-01T18:08:10;26.50;99.90
3226;DHT22;1625;49.884;8.666;2022-08-01T18:10:36;26.40;99.90
3226;DHT22;1625;49.884;8.666;2022-08-01T18:13:02;26.30;99.90
3226;DHT22;1625;49.884;8.666;2022-08-01T18:15:28;26.10;99.90
3226;DHT22;1625;49.884;8.666;2022-08-01T18:17:54;25.90;99.90
3226;DHT22;1625;49.884;8.666;2022-08-01T18:20:22;25.80;99.90
3226;DHT22;1625;49.884;8.666;2022-08-01T18:22:48;25.60;99.90
3226;DHT22;1625;49.884;8.666;2022-08-01T18:25:13;25.50;99.90
3226;DHT22;1625;49.884;8.666;2022-08-01T18:27:39;25.40;99.90
3226;DHT22;1625;49.884;8.666;2022-08-01T18:30:05;25.40;99.90
3226;DHT22;1625;49.884;8.666;2022-08-01T18:32:31;25.30;99.90
3226;DHT22;1625;49.884;8.666;2022-08-01T18:34:56;25.20;99.90
3226;DHT22;1625;49.884;8.666;2022-08-01T18:37:22;25.20;99.90
3226;DHT22;1625;49.884;8.666;2022-08-01T18:39:48;25.00;99.90
3226;DHT22;1625;49.884;8.666;2022-08-01T18:42:15;24.90;99.90
3226;DHT22;1625;49.884;8.666;2022-08-01T18:44:40;24.90;99.90
3226;DHT22;1625;49.884;8.666;2022-08-01T18:47:06;24.90;99.90
3226;DHT22;1625;49.884;8.666;2022-08-01T18:49:31;24.80;99.90
3226;DHT22;1625;49.884;8.666;2022-08-01T18:51:57;24.70;99.90
3226;DHT22;1625;49.884;8.666;2022-08-01T18:54:22;24.60;99.90
3226;DHT22;1625;49.884;8.666;2022-08-01T18:56:49;24.50;99.90
3226;DHT22;1625;49.884;8.666;2022-08-01T18:59:15;24.40;99.90
3226;DHT22;1625;49.884;8.666;2022-08-01T19:01:41;24.30;99.90
3226;DHT22;1625;49.884;8.666;2022-08-01T19:04:06;24.10;99.90
3226;DHT22;1625;49.884;8.666;2022-08-01T19:06:32;24.10;99.90
3226;DHT22;1625;49.884;8.666;2022-08-01T19:08:58;24.00;99.90
3226;DHT22;1625;49.884;8.666;2022-08-01T19:11:25;24.00;99.90
3226;DHT22;1625;49.884;8.666;2022-08-01T19:13:51;23.80;99.90
3226;DHT22;1625;49.884;8.666;2022-08-01T19:16:17;23.80;99.90
3226;DHT22;1625;49.884;8.666;2022-08-01T19:18:42;23.70;99.90
3226;DHT22;1625;49.884;8.666;2022-08-01T19:21:08;23.60;99.90
3226;DHT22;1625;49.884;8.666;2022-08-01T19:23:34;23.60;99.90
3226;DHT22;1625;49.884;8.666;2022-08-01T19:26:20;23.60;99.90
3226;DHT22;1625;49.884;8.666;2022-08-01T19:28:51;23.60;99.90
3226;DHT22;1625;49.884;8.666;2022-08-01T19:31:23;23.50;99.90
3226;DHT22;1625;49.884;8.666;2022-08-01T19:33:51;23.40;99.90
3226;DHT22;1625;49.884;8.666;2022-08-01T19:36:17;23.40;99.90
3226;DHT22;1625;49.884;8.666;2022-08-01T19:38:44;23.30;99.90
3226;DHT22;1625;49.884;8.666;2022-08-01T19:41:10;23.30;99.90
3226;DHT22;1625;49.884;8.666;2022-08-01T19:43:38;23.20;99.90
3226;DHT22;1625;49.884;8.666;2022-08-01T19:46:04;23.20;99.90
3226;DHT22;1625;49.884;8.666;2022-08-01T19:48:34;23.10;99.90
3226;DHT22;1625;49.884;8.666;2022-08-01T19:51:01;23.00;99.90
3226;DHT22;1625;49.884;8.666;2022-08-01T19:53:34;22.90;99.90
3226;DHT22;1625;49.884;8.666;2022-08-01T19:56:01;22.90;99.90
3226;DHT22;1625;49.884;8.666;2022-08-01T19:58:27;22.80;99.90
3226;DHT22;1625;49.884;8.666;2022-08-01T20:00:54;22.80;99.90
3226;DHT22;1625;49.884;8.666;2022-08-01T20:03:21;22.60;99.90
3226;DHT22;1625;49.884;8.666;2022-08-01T20:05:46;22.60;99.90
3226;DHT22;1625;49.884;8.666;2022-08-01T20:08:13;22.60;99.90
3226;DHT22;1625;49.884;8.666;2022-08-01T20:10:39;22.60;99.90
3226;DHT22;1625;49.884;8.666;2022-08-01T20:13:05;22.50;99.90
3226;DHT22;1625;49.884;8.666;2022-08-01T20:15:32;22.50;99.90
3226;DHT22;1625;49.884;8.666;2022-08-01T20:17:57;22.50;99.90
3226;DHT22;1625;49.884;8.666;2022-08-01T20:20:23;22.50;99.90
3226;DHT22;1625;49.884;8.666;2022-08-01T20:22:52;22.50;99.90
3226;DHT22;1625;49.884;8.666;2022-08-01T20:25:21;22.50;99.90
3226;DHT22;1625;49.884;8.666;2022-08-01T20:27:47;22.40;99.90
3226;DHT22;1625;49.884;8.666;2022-08-01T20:30:12;22.40;99.90
3226;DHT22;1625;49.884;8.666;2022-08-01T20:32:38;22.40;99.90
3226;DHT22;1625;49.884;8.666;2022-08-01T20:35:06;22.40;99.90
3226;DHT22;1625;49.884;8.666;2022-08-01T20:37:33;22.30;99.90
3226;DHT22;1625;49.884;8.666;2022-08-01T20:40:04;22.20;99.90
3226;DHT22;1625;49.884;8.666;2022-08-01T20:42:30;22.20;99.90
3226;DHT22;1625;49.884;8.666;2022-08-01T20:44:58;22.20;99.90
3226;DHT22;1625;49.884;8.666;2022-08-01T20:47:26;22.20;99.90
3226;DHT22;1625;49.884;8.666;2022-08-01T20:49:52;22.20;99.90
3226;DHT22;1625;49.884;8.666;2022-08-01T20:52:44;22.20;99.90
3226;DHT22;1625;49.884;8.666;2022-08-01T20:55:10;22.10;99.90
3226;DHT22;1625;49.884;8.666;2022-08-01T20:57:37;22.20;99.90
3226;DHT22;1625;49.884;8.666;2022-08-01T21:00:05;22.20;99.90
3226;DHT22;1625;49.884;8.666;2022-08-01T21:02:58;22.20;99.90
3226;DHT22;1625;49.884;8.666;2022-08-01T21:05:29;22.10;99.90
3226;DHT22;1625;49.884;8.666;2022-08-01T21:08:21;22.10;99.90
3226;DHT22;1625;49.884;8.666;2022-08-01T21:10:55;22.10;99.90
3226;DHT22;1625;49.884;8.666;2022-08-01T21:13:36;22.10;99.90
3226;DHT22;1625;49.884;8.666;2022-08-01T21:16:03;22.00;99.90
3226;DHT22;1625;49.884;8.666;2022-08-01T21:18:50;21.90;99.90
3226;DHT22;1625;49.884;8.666;2022-08-01T21:21:21;21.90;99.90
3226;DHT22;1625;49.884;8.666;2022-08-01T21:24:12;21.90;99.90
3226;DHT22;1625;49.884;8.666;2022-08-01T21:26:39;21.80;99.90
3226;DHT22;1625;49.884;8.666;2022-08-01T21:29:09;21.80;99.90
3226;DHT22;1625;49.884;8.666;2022-08-01T21:31:35;21.70;99.90
3226;DHT22;1625;49.884;8.666;2022-08-01T21:34:03;21.70;99.90
3226;DHT22;1625;49.884;8.666;2022-08-01T21:36:30;21.70;99.90
3226;DHT22;1625;49.884;8.666;2022-08-01T21:38:57;21.60;99.90
3226;DHT22;1625;49.884;8.666;2022-08-01T21:41:25;21.60;99.90
3226;DHT22;1625;49.884;8.666;2022-08-01T21:43:52;21.60;99.90
3226;DHT22;1625;49.884;8.666;2022-08-01T21:46:19;21.50;99.90
3226;DHT22;1625;49.884;8.666;2022-08-01T21:48:46;21.50;99.90
3226;DHT22;1625;49.884;8.666;2022-08-01T21:54:15;21.40;99.90
3226;DHT22;1625;49.884;8.666;2022-08-01T21:59:16;21.40;99.90
3226;DHT22;1625;49.884;8.666;2022-08-01T22:01:51;21.30;99.90
3226;DHT22;1625;49.884;8.666;2022-08-01T22:04:41;21.30;99.90
3226;DHT22;1625;49.884;8.666;2022-08-01T22:07:12;21.30;99.90
3226;DHT22;1625;49.884;8.666;2022-08-01T22:09:44;21.30;99.90
3226;DHT22;1625;49.884;8.666;2022-08-01T22:12:11;21.30;99.90
3226;DHT22;1625;49.884;8.666;2022-08-01T22:14:46;21.20;99.90
3226;DHT22;1625;49.884;8.666;2022-08-01T22:17:22;21.20;99.90
3226;DHT22;1625;49.884;8.666;2022-08-01T22:19:51;21.20;99.90
3226;DHT22;1625;49.884;8.666;2022-08-01T22:22:20;21.20;99.90